sensor_id;sensor_type;location;lat;lon;timestamp;P1;durP1;ratioP1;P2;durP2;ratioP2
58928;SDS011;44713;53.378;10.022;2023-03-16T00:00:18;14.02;;;2.88;;
58928;SDS011;44713;53.378;10.022;2023-03-16T00:02:44;6.32;;;3.85;;
58928;SDS011;44713;53.378;10.022;2023-03-16T00:05:09;5.97;;;3.65;;
58928;SDS011;44713;53.378;10.022;2023-03-16T00:07:37;6.55;;;3.10;;
58928;SDS011;44713;53.378;10.022;2023-03-16T00:10:02;9.23;;;2.95;;
58928;SDS011;44713;53.378;10.022;2023-03-16T00:12:28;8.70;;;3.00;;
58928;SDS011;44713;53.378;10.022;2023-03-16T00:14:53;9.73;;;3.47;;
58928;SDS011;44713;53.378;10.022;2023-03-16T00:17:19;9.70;;;3.30;;
58928;SDS011;44713;53.378;10.022;2023-03-16T00:19:46;11.18;;;3.85;;
58928;SDS011;44713;53.378;10.022;2023-03-16T00:22:13;9.93;;;3.22;;
58928;SDS011;44713;53.378;10.022;2023-03-16T00:24:40;11.32;;;3.13;;
58928;SDS011;44713;53.378;10.022;2023-03-16T00:27:11;11.10;;;3.42;;
58928;SDS011;44713;53.378;10.022;2023-03-16T00:29:39;6.95;;;2.42;;
58928;SDS011;44713;53.378;10.022;2023-03-16T00:32:11;5.30;;;2.42;;
58928;SDS011;44713;53.378;10.022;2023-03-16T00:34:38;6.88;;;2.75;;
58928;SDS011;44713;53.378;10.022;2023-03-16T00:37:03;7.00;;;2.30;;
58928;SDS011;44713;53.378;10.022;2023-03-16T00:39:28;7.85;;;2.67;;
58928;SDS011;44713;53.378;10.022;2023-03-16T00:41:54;6.03;;;2.30;;
58928;SDS011;44713;53.378;10.022;2023-03-16T00:44:22;7.82;;;2.22;;
58928;SDS011;44713;53.378;10.022;2023-03-16T00:46:48;5.53;;;2.30;;
58928;SDS011;44713;53.378;10.022;2023-03-16T00:49:15;6.60;;;2.20;;
58928;SDS011;44713;53.378;10.022;2023-03-16T00:51:40;7.25;;;2.20;;
58928;SDS011;44713;53.378;10.022;2023-03-16T00:54:11;3.92;;;2.03;;
58928;SDS011;44713;53.378;10.022;2023-03-16T00:56:36;6.28;;;2.28;;
58928;SDS011;44713;53.378;10.022;2023-03-16T00:59:03;6.97;;;2.33;;
58928;SDS011;44713;53.378;10.022;2023-03-16T01:01:29;8.95;;;2.00;;
58928;SDS011;44713;53.378;10.022;2023-03-16T01:03:56;5.28;;;2.13;;
58928;SDS011;44713;53.378;10.022;2023-03-16T01:06:23;8.00;;;2.53;;
58928;SDS011;44713;53.378;10.022;2023-03-16T01:08:50;10.60;;;2.50;;
58928;SDS011;44713;53.378;10.022;2023-03-16T01:11:17;4.75;;;2.40;;
58928;SDS011;44713;53.378;10.022;2023-03-16T01:13:44;13.18;;;2.67;;
58928;SDS011;44713;53.378;10.022;2023-03-16T01:16:11;6.15;;;2.60;;
58928;SDS011;44713;53.378;10.022;2023-03-16T01:18:37;7.03;;;2.60;;
58928;SDS011;44713;53.378;10.022;2023-03-16T01:21:04;7.05;;;2.47;;
58928;SDS011;44713;53.378;10.022;2023-03-16T01:23:32;5.43;;;2.83;;
58928;SDS011;44713;53.378;10.022;2023-03-16T01:25:58;7.13;;;2.85;;
58928;SDS011;44713;53.378;10.022;2023-03-16T01:28:25;6.07;;;2.40;;
58928;SDS011;44713;53.378;10.022;2023-03-16T01:30:54;13.77;;;2.97;;
58928;SDS011;44713;53.378;10.022;2023-03-16T01:33:23;9.13;;;2.65;;
58928;SDS011;44713;53.378;10.022;2023-03-16T01:35:54;7.05;;;2.97;;
58928;SDS011;44713;53.378;10.022;2023-03-16T01:38:21;5.53;;;2.67;;
58928;SDS011;44713;53.378;10.022;2023-03-16T01:40:48;7.88;;;2.42;;
58928;SDS011;44713;53.378;10.022;2023-03-16T01:43:20;9.50;;;2.58;;
58928;SDS011;44713;53.378;10.022;2023-03-16T01:45:59;5.57;;;2.13;;
58928;SDS011;44713;53.378;10.022;2023-03-16T01:51:34;8.30;;;2.00;;
58928;SDS011;44713;53.378;10.022;2023-03-16T01:56:40;4.43;;;1.92;;
58928;SDS011;44713;53.378;10.022;2023-03-16T01:59:21;4.85;;;2.08;;
58928;SDS011;44713;53.378;10.022;2023-03-16T02:01:51;9.38;;;3.05;;
58928;SDS011;44713;53.378;10.022;2023-03-16T02:05:03;6.22;;;2.40;;
58928;SDS011;44713;53.378;10.022;2023-03-16T02:07:13;6.30;;;2.35;;
58928;SDS011;44713;53.378;10.022;2023-03-16T02:09:42;7.30;;;2.42;;
58928;SDS011;44713;53.378;10.022;2023-03-16T02:12:11;7.70;;;2.30;;
58928;SDS011;44713;53.378;10.022;2023-03-16T02:14:47;9.90;;;2.33;;
58928;SDS011;44713;53.378;10.022;2023-03-16T02:17:14;6.28;;;2.17;;
58928;SDS011;44713;53.378;10.022;2023-03-16T02:22:16;5.80;;;2.10;;
58928;SDS011;44713;53.378;10.022;2023-03-16T02:24:43;8.05;;;2.80;;
58928;SDS011;44713;53.378;10.022;2023-03-16T02:27:11;5.25;;;2.65;;
58928;SDS011;44713;53.378;10.022;2023-03-16T02:29:46;5.72;;;2.58;;
58928;SDS011;44713;53.378;10.022;2023-03-16T02:32:40;9.15;;;2.05;;
58928;SDS011;44713;53.378;10.022;2023-03-16T02:35:07;6.53;;;2.40;;
58928;SDS011;44713;53.378;10.022;2023-03-16T02:37:34;12.40;;;2.13;;
58928;SDS011;44713;53.378;10.022;2023-03-16T02:40:00;4.88;;;2.55;;
58928;SDS011;44713;53.378;10.022;2023-03-16T02:42:27;5.97;;;2.42;;
58928;SDS011;44713;53.378;10.022;2023-03-16T02:44:57;6.78;;;3.05;;
58928;SDS011;44713;53.378;10.022;2023-03-16T02:50:07;8.48;;;2.78;;
58928;SDS011;44713;53.378;10.022;2023-03-16T02:52:34;7.93;;;2.78;;
58928;SDS011;44713;53.378;10.022;2023-03-16T02:55:01;6.07;;;3.03;;
58928;SDS011;44713;53.378;10.022;2023-03-16T02:57:27;7.03;;;2.67;;
58928;SDS011;44713;53.378;10.022;2023-03-16T02:59:56;6.45;;;2.80;;
58928;SDS011;44713;53.378;10.022;2023-03-16T03:02:22;9.60;;;2.33;;
58928;SDS011;44713;53.378;10.022;2023-03-16T03:04:47;8.93;;;2.75;;
58928;SDS011;44713;53.378;10.022;2023-03-16T03:07:13;6.07;;;2.47;;
58928;SDS011;44713;53.378;10.022;2023-03-16T03:09:58;6.82;;;2.47;;
58928;SDS011;44713;53.378;10.022;2023-03-16T03:12:23;5.15;;;2.20;;
58928;SDS011;44713;53.378;10.022;2023-03-16T03:14:49;6.57;;;2.72;;
58928;SDS011;44713;53.378;10.022;2023-03-16T03:17:17;8.07;;;2.65;;
58928;SDS011;44713;53.378;10.022;2023-03-16T03:19:43;5.80;;;2.72;;
58928;SDS011;44713;53.378;10.022;2023-03-16T03:22:08;7.50;;;3.17;;
58928;SDS011;44713;53.378;10.022;2023-03-16T03:24:34;6.43;;;2.53;;
58928;SDS011;44713;53.378;10.022;2023-03-16T03:27:00;7.93;;;3.60;;
58928;SDS011;44713;53.378;10.022;2023-03-16T03:29:31;5.53;;;2.72;;
58928;SDS011;44713;53.378;10.022;2023-03-16T03:32:02;8.27;;;3.30;;
58928;SDS011;44713;53.378;10.022;2023-03-16T03:34:29;4.80;;;3.10;;
58928;SDS011;44713;53.378;10.022;2023-03-16T03:36:56;7.22;;;2.92;;
58928;SDS011;44713;53.378;10.022;2023-03-16T03:39:23;7.95;;;3.47;;
58928;SDS011;44713;53.378;10.022;2023-03-16T03:41:50;8.82;;;3.35;;
58928;SDS011;44713;53.378;10.022;2023-03-16T03:44:22;11.73;;;3.30;;
58928;SDS011;44713;53.378;10.022;2023-03-16T03:46:48;8.45;;;3.53;;
58928;SDS011;44713;53.378;10.022;2023-03-16T03:49:14;8.75;;;3.03;;
58928;SDS011;44713;53.378;10.022;2023-03-16T03:51:39;4.75;;;2.55;;
58928;SDS011;44713;53.378;10.022;2023-03-16T03:54:15;7.38;;;3.33;;
58928;SDS011;44713;53.378;10.022;2023-03-16T03:56:54;7.65;;;2.90;;
58928;SDS011;44713;53.378;10.022;2023-03-16T03:59:20;8.85;;;3.30;;
58928;SDS011;44713;53.378;10.022;2023-03-16T04:02:01;6.07;;;2.60;;
58928;SDS011;44713;53.378;10.022;2023-03-16T04:04:37;6.95;;;2.60;;
58928;SDS011;44713;53.378;10.022;2023-03-16T04:07:03;8.30;;;2.97;;
58928;SDS011;44713;53.378;10.022;2023-03-16T04:09:29;6.65;;;2.83;;
58928;SDS011;44713;53.378;10.022;2023-03-16T04:12:01;4.75;;;3.05;;
58928;SDS011;44713;53.378;10.022;2023-03-16T04:14:28;5.47;;;2.47;;
58928;SDS011;44713;53.378;10.022;2023-03-16T04:16:54;5.13;;;2.90;;
58928;SDS011;44713;53.378;10.022;2023-03-16T04:19:21;7.65;;;3.35;;
58928;SDS011;44713;53.378;10.022;2023-03-16T04:21:48;8.50;;;3.08;;
58928;SDS011;44713;53.378;10.022;2023-03-16T04:24:17;5.47;;;2.67;;
58928;SDS011;44713;53.378;10.022;2023-03-16T04:26:43;9.27;;;3.67;;
58928;SDS011;44713;53.378;10.022;2023-03-16T04:29:09;8.27;;;3.53;;
58928;SDS011;44713;53.378;10.022;2023-03-16T04:31:37;10.18;;;3.97;;
58928;SDS011;44713;53.378;10.022;2023-03-16T04:34:03;8.60;;;3.40;;
58928;SDS011;44713;53.378;10.022;2023-03-16T04:36:28;10.00;;;3.40;;
58928;SDS011;44713;53.378;10.022;2023-03-16T04:38:54;7.60;;;2.80;;
58928;SDS011;44713;53.378;10.022;2023-03-16T04:41:21;8.63;;;3.85;;
58928;SDS011;44713;53.378;10.022;2023-03-16T04:43:54;10.93;;;4.10;;
58928;SDS011;44713;53.378;10.022;2023-03-16T04:46:23;12.85;;;2.90;;
58928;SDS011;44713;53.378;10.022;2023-03-16T04:48:50;7.22;;;2.83;;
58928;SDS011;44713;53.378;10.022;2023-03-16T04:51:16;8.18;;;2.35;;
58928;SDS011;44713;53.378;10.022;2023-03-16T04:53:53;5.13;;;2.45;;
58928;SDS011;44713;53.378;10.022;2023-03-16T04:56:28;9.35;;;2.78;;
58928;SDS011;44713;53.378;10.022;2023-03-16T04:58:58;8.05;;;3.00;;
58928;SDS011;44713;53.378;10.022;2023-03-16T05:01:28;6.93;;;2.42;;
58928;SDS011;44713;53.378;10.022;2023-03-16T05:03:57;6.47;;;2.72;;
58928;SDS011;44713;53.378;10.022;2023-03-16T05:06:26;8.50;;;2.80;;
58928;SDS011;44713;53.378;10.022;2023-03-16T05:08:51;7.38;;;2.63;;
58928;SDS011;44713;53.378;10.022;2023-03-16T05:11:17;5.20;;;2.70;;
58928;SDS011;44713;53.378;10.022;2023-03-16T05:13:52;3.72;;;2.38;;
58928;SDS011;44713;53.378;10.022;2023-03-16T05:16:18;6.63;;;2.85;;
58928;SDS011;44713;53.378;10.022;2023-03-16T05:18:44;8.63;;;2.53;;
58928;SDS011;44713;53.378;10.022;2023-03-16T05:21:10;4.22;;;2.63;;
58928;SDS011;44713;53.378;10.022;2023-03-16T05:23:57;8.40;;;2.67;;
58928;SDS011;44713;53.378;10.022;2023-03-16T05:26:22;7.30;;;2.65;;
58928;SDS011;44713;53.378;10.022;2023-03-16T05:28:50;8.00;;;3.00;;
58928;SDS011;44713;53.378;10.022;2023-03-16T05:31:17;6.65;;;2.58;;
58928;SDS011;44713;53.378;10.022;2023-03-16T05:33:48;6.35;;;2.75;;
58928;SDS011;44713;53.378;10.022;2023-03-16T05:36:16;6.93;;;2.60;;
58928;SDS011;44713;53.378;10.022;2023-03-16T05:38:44;5.60;;;2.25;;
58928;SDS011;44713;53.378;10.022;2023-03-16T05:41:16;8.48;;;2.55;;
58928;SDS011;44713;53.378;10.022;2023-03-16T05:43:53;6.60;;;2.13;;
58928;SDS011;44713;53.378;10.022;2023-03-16T05:46:20;3.47;;;2.30;;
58928;SDS011;44713;53.378;10.022;2023-03-16T05:48:47;4.10;;;2.05;;
58928;SDS011;44713;53.378;10.022;2023-03-16T05:51:17;7.95;;;2.33;;
58928;SDS011;44713;53.378;10.022;2023-03-16T05:53:43;5.32;;;2.22;;
58928;SDS011;44713;53.378;10.022;2023-03-16T05:56:16;7.53;;;2.40;;
58928;SDS011;44713;53.378;10.022;2023-03-16T05:58:44;3.63;;;2.30;;
58928;SDS011;44713;53.378;10.022;2023-03-16T06:01:09;4.32;;;2.25;;
58928;SDS011;44713;53.378;10.022;2023-03-16T06:03:37;7.68;;;2.38;;
58928;SDS011;44713;53.378;10.022;2023-03-16T06:06:05;5.45;;;2.38;;
58928;SDS011;44713;53.378;10.022;2023-03-16T06:08:36;8.80;;;2.80;;
58928;SDS011;44713;53.378;10.022;2023-03-16T06:11:07;11.68;;;3.00;;
58928;SDS011;44713;53.378;10.022;2023-03-16T06:13:33;11.88;;;3.13;;
58928;SDS011;44713;53.378;10.022;2023-03-16T06:15:59;6.90;;;3.53;;
58928;SDS011;44713;53.378;10.022;2023-03-16T06:18:25;8.00;;;4.50;;
58928;SDS011;44713;53.378;10.022;2023-03-16T06:20:51;8.95;;;4.30;;
58928;SDS011;44713;53.378;10.022;2023-03-16T06:23:17;15.00;;;4.53;;
58928;SDS011;44713;53.378;10.022;2023-03-16T06:25:48;8.00;;;4.05;;
58928;SDS011;44713;53.378;10.022;2023-03-16T06:28:15;8.45;;;3.90;;
58928;SDS011;44713;53.378;10.022;2023-03-16T06:30:41;5.78;;;3.38;;
58928;SDS011;44713;53.378;10.022;2023-03-16T06:33:07;13.68;;;4.05;;
58928;SDS011;44713;53.378;10.022;2023-03-16T06:35:32;10.32;;;3.97;;
58928;SDS011;44713;53.378;10.022;2023-03-16T06:38:21;8.65;;;3.75;;
58928;SDS011;44713;53.378;10.022;2023-03-16T06:40:57;7.57;;;3.47;;
58928;SDS011;44713;53.378;10.022;2023-03-16T06:43:23;7.97;;;3.60;;
58928;SDS011;44713;53.378;10.022;2023-03-16T06:45:49;9.30;;;3.97;;
58928;SDS011;44713;53.378;10.022;2023-03-16T06:48:15;6.75;;;3.90;;
58928;SDS011;44713;53.378;10.022;2023-03-16T06:50:43;6.07;;;3.40;;
58928;SDS011;44713;53.378;10.022;2023-03-16T06:53:09;7.03;;;3.17;;
58928;SDS011;44713;53.378;10.022;2023-03-16T06:55:36;11.32;;;3.60;;
58928;SDS011;44713;53.378;10.022;2023-03-16T06:58:01;7.95;;;3.42;;
58928;SDS011;44713;53.378;10.022;2023-03-16T07:00:27;7.13;;;3.05;;
58928;SDS011;44713;53.378;10.022;2023-03-16T07:02:52;7.30;;;3.65;;
58928;SDS011;44713;53.378;10.022;2023-03-16T07:05:19;7.47;;;3.17;;
58928;SDS011;44713;53.378;10.022;2023-03-16T07:07:45;7.95;;;3.35;;
58928;SDS011;44713;53.378;10.022;2023-03-16T07:10:13;10.30;;;3.38;;
58928;SDS011;44713;53.378;10.022;2023-03-16T07:12:40;8.32;;;3.85;;
58928;SDS011;44713;53.378;10.022;2023-03-16T07:15:06;8.10;;;3.08;;
58928;SDS011;44713;53.378;10.022;2023-03-16T07:17:32;6.78;;;3.22;;
58928;SDS011;44713;53.378;10.022;2023-03-16T07:19:58;6.00;;;3.03;;
58928;SDS011;44713;53.378;10.022;2023-03-16T07:22:23;5.97;;;3.10;;
58928;SDS011;44713;53.378;10.022;2023-03-16T07:24:49;8.98;;;3.20;;
58928;SDS011;44713;53.378;10.022;2023-03-16T07:27:20;8.70;;;3.03;;
58928;SDS011;44713;53.378;10.022;2023-03-16T07:29:47;8.00;;;3.35;;
58928;SDS011;44713;53.378;10.022;2023-03-16T07:32:14;7.05;;;3.45;;
58928;SDS011;44713;53.378;10.022;2023-03-16T07:34:40;6.00;;;3.35;;
58928;SDS011;44713;53.378;10.022;2023-03-16T07:37:06;5.53;;;2.67;;
58928;SDS011;44713;53.378;10.022;2023-03-16T07:39:33;12.30;;;3.35;;
58928;SDS011;44713;53.378;10.022;2023-03-16T07:42:08;15.10;;;3.20;;
58928;SDS011;44713;53.378;10.022;2023-03-16T07:45:00;9.23;;;2.53;;
58928;SDS011;44713;53.378;10.022;2023-03-16T07:47:27;8.15;;;2.92;;
58928;SDS011;44713;53.378;10.022;2023-03-16T07:49:57;7.70;;;2.85;;
58928;SDS011;44713;53.378;10.022;2023-03-16T07:52:23;8.55;;;4.00;;
58928;SDS011;44713;53.378;10.022;2023-03-16T07:54:50;8.27;;;2.55;;
58928;SDS011;44713;53.378;10.022;2023-03-16T07:57:16;13.05;;;2.72;;
58928;SDS011;44713;53.378;10.022;2023-03-16T07:59:42;9.73;;;2.50;;
58928;SDS011;44713;53.378;10.022;2023-03-16T08:02:15;14.77;;;2.92;;
58928;SDS011;44713;53.378;10.022;2023-03-16T08:04:42;6.78;;;2.70;;
58928;SDS011;44713;53.378;10.022;2023-03-16T08:07:10;9.40;;;2.95;;
58928;SDS011;44713;53.378;10.022;2023-03-16T08:09:49;8.88;;;2.30;;
58928;SDS011;44713;53.378;10.022;2023-03-16T08:12:20;9.75;;;2.58;;
58928;SDS011;44713;53.378;10.022;2023-03-16T08:14:45;9.57;;;3.00;;
58928;SDS011;44713;53.378;10.022;2023-03-16T08:17:16;8.85;;;2.20;;
58928;SDS011;44713;53.378;10.022;2023-03-16T08:19:43;8.00;;;2.47;;
58928;SDS011;44713;53.378;10.022;2023-03-16T08:22:09;10.88;;;2.35;;
58928;SDS011;44713;53.378;10.022;2023-03-16T08:24:39;7.10;;;1.92;;
58928;SDS011;44713;53.378;10.022;2023-03-16T08:27:06;5.15;;;1.42;;
58928;SDS011;44713;53.378;10.022;2023-03-16T08:29:34;6.07;;;1.77;;
58928;SDS011;44713;53.378;10.022;2023-03-16T08:32:01;8.20;;;1.60;;
58928;SDS011;44713;53.378;10.022;2023-03-16T08:34:31;2.50;;;1.30;;
58928;SDS011;44713;53.378;10.022;2023-03-16T08:36:57;4.20;;;1.63;;
58928;SDS011;44713;53.378;10.022;2023-03-16T08:39:23;8.15;;;1.60;;
58928;SDS011;44713;53.378;10.022;2023-03-16T08:41:50;5.38;;;1.52;;
58928;SDS011;44713;53.378;10.022;2023-03-16T08:44:33;6.40;;;1.30;;
58928;SDS011;44713;53.378;10.022;2023-03-16T08:47:00;4.78;;;1.45;;
58928;SDS011;44713;53.378;10.022;2023-03-16T08:49:26;3.75;;;1.67;;
58928;SDS011;44713;53.378;10.022;2023-03-16T08:52:06;5.60;;;1.38;;
58928;SDS011;44713;53.378;10.022;2023-03-16T08:54:34;6.82;;;1.30;;
58928;SDS011;44713;53.378;10.022;2023-03-16T08:57:00;4.97;;;1.30;;
58928;SDS011;44713;53.378;10.022;2023-03-16T08:59:26;4.40;;;1.10;;
58928;SDS011;44713;53.378;10.022;2023-03-16T09:01:52;5.75;;;1.45;;
58928;SDS011;44713;53.378;10.022;2023-03-16T09:04:17;6.88;;;1.52;;
58928;SDS011;44713;53.378;10.022;2023-03-16T09:06:42;7.80;;;1.15;;
58928;SDS011;44713;53.378;10.022;2023-03-16T09:09:08;5.40;;;1.50;;
58928;SDS011;44713;53.378;10.022;2023-03-16T09:11:33;7.28;;;1.45;;
58928;SDS011;44713;53.378;10.022;2023-03-16T09:13:59;4.35;;;1.10;;
58928;SDS011;44713;53.378;10.022;2023-03-16T09:16:25;7.32;;;1.35;;
58928;SDS011;44713;53.378;10.022;2023-03-16T09:18:50;5.70;;;1.33;;
58928;SDS011;44713;53.378;10.022;2023-03-16T09:21:17;8.18;;;1.17;;
58928;SDS011;44713;53.378;10.022;2023-03-16T09:23:43;4.63;;;1.50;;
58928;SDS011;44713;53.378;10.022;2023-03-16T09:26:09;5.82;;;1.40;;
58928;SDS011;44713;53.378;10.022;2023-03-16T09:28:36;8.13;;;1.60;;
58928;SDS011;44713;53.378;10.022;2023-03-16T09:31:05;9.25;;;1.70;;
58928;SDS011;44713;53.378;10.022;2023-03-16T09:33:31;6.80;;;1.52;;
58928;SDS011;44713;53.378;10.022;2023-03-16T09:35:57;5.22;;;1.10;;
58928;SDS011;44713;53.378;10.022;2023-03-16T09:38:24;3.45;;;0.93;;
58928;SDS011;44713;53.378;10.022;2023-03-16T09:40:57;4.95;;;0.95;;
58928;SDS011;44713;53.378;10.022;2023-03-16T09:46:48;3.67;;;1.13;;
58928;SDS011;44713;53.378;10.022;2023-03-16T09:49:16;7.07;;;1.42;;
58928;SDS011;44713;53.378;10.022;2023-03-16T09:54:50;5.80;;;1.40;;
58928;SDS011;44713;53.378;10.022;2023-03-16T09:57:26;5.38;;;1.50;;
58928;SDS011;44713;53.378;10.022;2023-03-16T09:59:54;8.73;;;1.40;;
58928;SDS011;44713;53.378;10.022;2023-03-16T10:05:40;4.25;;;1.25;;
58928;SDS011;44713;53.378;10.022;2023-03-16T10:10:36;4.07;;;1.00;;
58928;SDS011;44713;53.378;10.022;2023-03-16T10:16:02;7.25;;;1.00;;
58928;SDS011;44713;53.378;10.022;2023-03-16T10:19:16;1.67;;;0.60;;
58928;SDS011;44713;53.378;10.022;2023-03-16T10:21:26;6.32;;;1.08;;
58928;SDS011;44713;53.378;10.022;2023-03-16T10:23:54;3.67;;;0.80;;
58928;SDS011;44713;53.378;10.022;2023-03-16T10:26:27;3.58;;;0.80;;
58928;SDS011;44713;53.378;10.022;2023-03-16T10:29:00;4.72;;;0.80;;
58928;SDS011;44713;53.378;10.022;2023-03-16T10:31:26;4.70;;;0.88;;
58928;SDS011;44713;53.378;10.022;2023-03-16T10:33:53;5.28;;;0.85;;
58928;SDS011;44713;53.378;10.022;2023-03-16T10:36:30;4.60;;;0.80;;
58928;SDS011;44713;53.378;10.022;2023-03-16T10:39:03;2.80;;;0.80;;
58928;SDS011;44713;53.378;10.022;2023-03-16T10:41:31;1.83;;;0.65;;
58928;SDS011;44713;53.378;10.022;2023-03-16T10:44:09;2.53;;;0.60;;
58928;SDS011;44713;53.378;10.022;2023-03-16T10:46:47;5.05;;;0.70;;
58928;SDS011;44713;53.378;10.022;2023-03-16T10:49:24;2.72;;;0.80;;
58928;SDS011;44713;53.378;10.022;2023-03-16T10:51:52;2.25;;;0.90;;
58928;SDS011;44713;53.378;10.022;2023-03-16T10:54:22;3.08;;;0.60;;
58928;SDS011;44713;53.378;10.022;2023-03-16T10:56:52;3.80;;;1.00;;
58928;SDS011;44713;53.378;10.022;2023-03-16T11:02:07;2.88;;;0.90;;
58928;SDS011;44713;53.378;10.022;2023-03-16T11:04:39;2.83;;;0.80;;
58928;SDS011;44713;53.378;10.022;2023-03-16T11:07:06;1.60;;;0.60;;
58928;SDS011;44713;53.378;10.022;2023-03-16T11:09:39;5.90;;;0.93;;
58928;SDS011;44713;53.378;10.022;2023-03-16T11:12:14;4.60;;;0.90;;
58928;SDS011;44713;53.378;10.022;2023-03-16T11:14:48;2.55;;;0.90;;
58928;SDS011;44713;53.378;10.022;2023-03-16T11:17:15;2.72;;;0.95;;
58928;SDS011;44713;53.378;10.022;2023-03-16T11:19:52;3.53;;;0.63;;
58928;SDS011;44713;53.378;10.022;2023-03-16T11:22:25;4.57;;;0.90;;
58928;SDS011;44713;53.378;10.022;2023-03-16T11:24:52;2.72;;;1.00;;
58928;SDS011;44713;53.378;10.022;2023-03-16T11:30:33;2.35;;;0.70;;
58928;SDS011;44713;53.378;10.022;2023-03-16T11:33:06;2.83;;;0.50;;
58928;SDS011;44713;53.378;10.022;2023-03-16T11:35:36;2.55;;;0.70;;
58928;SDS011;44713;53.378;10.022;2023-03-16T11:38:13;3.20;;;0.70;;
58928;SDS011;44713;53.378;10.022;2023-03-16T11:46:10;2.17;;;0.88;;
58928;SDS011;44713;53.378;10.022;2023-03-16T11:48:59;2.80;;;0.57;;
58928;SDS011;44713;53.378;10.022;2023-03-16T11:54:51;2.85;;;0.60;;
58928;SDS011;44713;53.378;10.022;2023-03-16T12:06:47;2.65;;;0.50;;
58928;SDS011;44713;53.378;10.022;2023-03-16T12:09:17;1.25;;;0.50;;
58928;SDS011;44713;53.378;10.022;2023-03-16T12:12:11;2.03;;;0.50;;
58928;SDS011;44713;53.378;10.022;2023-03-16T12:15:02;1.92;;;0.70;;
58928;SDS011;44713;53.378;10.022;2023-03-16T12:17:38;2.10;;;0.50;;
58928;SDS011;44713;53.378;10.022;2023-03-16T12:20:12;1.67;;;0.52;;
58928;SDS011;44713;53.378;10.022;2023-03-16T12:22:51;1.73;;;0.60;;
58928;SDS011;44713;53.378;10.022;2023-03-16T12:25:30;3.03;;;0.60;;
58928;SDS011;44713;53.378;10.022;2023-03-16T12:27:59;3.10;;;0.60;;
58928;SDS011;44713;53.378;10.022;2023-03-16T12:30:34;2.28;;;0.80;;
58928;SDS011;44713;53.378;10.022;2023-03-16T12:43:41;3.58;;;0.70;;
58928;SDS011;44713;53.378;10.022;2023-03-16T12:46:25;2.83;;;0.65;;
58928;SDS011;44713;53.378;10.022;2023-03-16T12:48:59;3.97;;;0.50;;
58928;SDS011;44713;53.378;10.022;2023-03-16T12:51:39;1.30;;;0.57;;
58928;SDS011;44713;53.378;10.022;2023-03-16T12:54:22;3.40;;;0.90;;
58928;SDS011;44713;53.378;10.022;2023-03-16T12:56:50;4.15;;;0.70;;
58928;SDS011;44713;53.378;10.022;2023-03-16T12:59:21;1.48;;;0.40;;
58928;SDS011;44713;53.378;10.022;2023-03-16T13:01:50;2.40;;;0.60;;
58928;SDS011;44713;53.378;10.022;2023-03-16T13:04:21;2.85;;;0.50;;
58928;SDS011;44713;53.378;10.022;2023-03-16T13:09:49;2.45;;;0.60;;
58928;SDS011;44713;53.378;10.022;2023-03-16T13:12:28;1.95;;;0.60;;
58928;SDS011;44713;53.378;10.022;2023-03-16T13:14:56;3.38;;;0.70;;
58928;SDS011;44713;53.378;10.022;2023-03-16T13:17:32;2.55;;;0.60;;
58928;SDS011;44713;53.378;10.022;2023-03-16T13:22:42;4.88;;;0.70;;
58928;SDS011;44713;53.378;10.022;2023-03-16T13:25:33;2.13;;;0.70;;
58928;SDS011;44713;53.378;10.022;2023-03-16T13:28:04;3.63;;;0.60;;
58928;SDS011;44713;53.378;10.022;2023-03-16T13:30:32;4.05;;;1.05;;
58928;SDS011;44713;53.378;10.022;2023-03-16T13:32:59;3.25;;;0.80;;
58928;SDS011;44713;53.378;10.022;2023-03-16T13:35:35;2.33;;;0.93;;
58928;SDS011;44713;53.378;10.022;2023-03-16T13:38:03;3.03;;;0.85;;
58928;SDS011;44713;53.378;10.022;2023-03-16T13:40:29;2.45;;;0.60;;
58928;SDS011;44713;53.378;10.022;2023-03-16T13:42:55;3.70;;;0.60;;
58928;SDS011;44713;53.378;10.022;2023-03-16T13:45:32;2.35;;;0.60;;
58928;SDS011;44713;53.378;10.022;2023-03-16T13:48:00;1.95;;;0.75;;
58928;SDS011;44713;53.378;10.022;2023-03-16T13:50:30;2.42;;;0.60;;
58928;SDS011;44713;53.378;10.022;2023-03-16T13:52:57;1.77;;;0.68;;
58928;SDS011;44713;53.378;10.022;2023-03-16T13:55:30;3.50;;;0.60;;
58928;SDS011;44713;53.378;10.022;2023-03-16T13:57:58;3.40;;;0.65;;
58928;SDS011;44713;53.378;10.022;2023-03-16T14:00:25;2.55;;;0.70;;
58928;SDS011;44713;53.378;10.022;2023-03-16T14:02:54;3.42;;;0.60;;
58928;SDS011;44713;53.378;10.022;2023-03-16T14:05:28;1.52;;;0.60;;
58928;SDS011;44713;53.378;10.022;2023-03-16T14:07:57;2.67;;;0.68;;
58928;SDS011;44713;53.378;10.022;2023-03-16T14:10:30;4.88;;;0.77;;
58928;SDS011;44713;53.378;10.022;2023-03-16T14:13:08;1.95;;;0.65;;
58928;SDS011;44713;53.378;10.022;2023-03-16T14:15:46;2.42;;;0.65;;
58928;SDS011;44713;53.378;10.022;2023-03-16T14:18:16;2.92;;;0.70;;
58928;SDS011;44713;53.378;10.022;2023-03-16T14:20:55;1.60;;;0.80;;
58928;SDS011;44713;53.378;10.022;2023-03-16T14:23:24;2.42;;;0.70;;
58928;SDS011;44713;53.378;10.022;2023-03-16T14:25:55;2.13;;;0.73;;
58928;SDS011;44713;53.378;10.022;2023-03-16T14:28:29;1.73;;;0.50;;
58928;SDS011;44713;53.378;10.022;2023-03-16T14:31:07;3.10;;;0.80;;
58928;SDS011;44713;53.378;10.022;2023-03-16T14:33:36;2.28;;;0.60;;
58928;SDS011;44713;53.378;10.022;2023-03-16T14:36:10;2.50;;;0.90;;
58928;SDS011;44713;53.378;10.022;2023-03-16T14:43:34;3.05;;;0.70;;
58928;SDS011;44713;53.378;10.022;2023-03-16T14:46:05;1.58;;;0.63;;
58928;SDS011;44713;53.378;10.022;2023-03-16T14:48:32;1.85;;;0.50;;
58928;SDS011;44713;53.378;10.022;2023-03-16T14:50:59;2.15;;;0.60;;
58928;SDS011;44713;53.378;10.022;2023-03-16T14:53:27;3.22;;;0.60;;
58928;SDS011;44713;53.378;10.022;2023-03-16T14:55:53;1.73;;;0.63;;
58928;SDS011;44713;53.378;10.022;2023-03-16T14:58:19;1.67;;;0.68;;
58928;SDS011;44713;53.378;10.022;2023-03-16T15:00:45;2.50;;;0.50;;
58928;SDS011;44713;53.378;10.022;2023-03-16T15:03:11;5.90;;;0.70;;
58928;SDS011;44713;53.378;10.022;2023-03-16T15:05:40;3.55;;;0.60;;
58928;SDS011;44713;53.378;10.022;2023-03-16T15:08:11;3.92;;;0.55;;
58928;SDS011;44713;53.378;10.022;2023-03-16T15:10:41;1.08;;;0.50;;
58928;SDS011;44713;53.378;10.022;2023-03-16T15:13:12;2.38;;;0.60;;
58928;SDS011;44713;53.378;10.022;2023-03-16T15:15:40;2.58;;;0.60;;
58928;SDS011;44713;53.378;10.022;2023-03-16T15:18:06;3.35;;;0.63;;
58928;SDS011;44713;53.378;10.022;2023-03-16T15:20:34;1.95;;;0.50;;
58928;SDS011;44713;53.378;10.022;2023-03-16T15:23:05;1.70;;;0.40;;
58928;SDS011;44713;53.378;10.022;2023-03-16T15:25:35;1.67;;;0.38;;
58928;SDS011;44713;53.378;10.022;2023-03-16T15:28:13;0.85;;;0.40;;
58928;SDS011;44713;53.378;10.022;2023-03-16T15:30:42;2.22;;;0.50;;
58928;SDS011;44713;53.378;10.022;2023-03-16T15:33:08;4.78;;;0.60;;
58928;SDS011;44713;53.378;10.022;2023-03-16T15:35:34;2.42;;;0.75;;
58928;SDS011;44713;53.378;10.022;2023-03-16T15:38:02;0.93;;;0.50;;
58928;SDS011;44713;53.378;10.022;2023-03-16T15:40:31;2.42;;;0.60;;
58928;SDS011;44713;53.378;10.022;2023-03-16T15:42:56;2.15;;;0.50;;
58928;SDS011;44713;53.378;10.022;2023-03-16T15:45:22;2.05;;;0.50;;
58928;SDS011;44713;53.378;10.022;2023-03-16T15:47:49;4.20;;;0.57;;
58928;SDS011;44713;53.378;10.022;2023-03-16T15:50:16;2.33;;;0.70;;
58928;SDS011;44713;53.378;10.022;2023-03-16T15:52:45;3.25;;;0.80;;
58928;SDS011;44713;53.378;10.022;2023-03-16T15:55:17;2.65;;;0.50;;
58928;SDS011;44713;53.378;10.022;2023-03-16T15:57:45;1.52;;;0.50;;